sensor_id;sensor_type;location;lat;lon;timestamp;P1;durP1;ratioP1;P2;durP2;ratioP2
35366;SDS011;21465;52.278;20.962;2023-06-24T00:01:17;2.85;;;2.10;;
35366;SDS011;21465;52.278;20.962;2023-06-24T00:03:43;1.90;;;1.70;;
35366;SDS011;21465;52.278;20.962;2023-06-24T00:06:12;2.03;;;1.92;;
35366;SDS011;21465;52.278;20.962;2023-06-24T00:08:44;1.90;;;1.80;;
35366;SDS011;21465;52.278;20.962;2023-06-24T00:11:11;2.15;;;1.95;;
35366;SDS011;21465;52.278;20.962;2023-06-24T00:13:38;5.32;;;2.17;;
35366;SDS011;21465;52.278;20.962;2023-06-24T00:16:04;1.85;;;1.75;;
35366;SDS011;21465;52.278;20.962;2023-06-24T00:18:35;1.92;;;1.83;;
35366;SDS011;21465;52.278;20.962;2023-06-24T00:21:01;2.55;;;2.15;;
35366;SDS011;21465;52.278;20.962;2023-06-24T00:23:28;1.90;;;1.80;;
35366;SDS011;21465;52.278;20.962;2023-06-24T00:25:55;1.92;;;1.83;;
35366;SDS011;21465;52.278;20.962;2023-06-24T00:28:22;2.05;;;1.85;;
35366;SDS011;21465;52.278;20.962;2023-06-24T00:30:48;1.92;;;1.80;;
35366;SDS011;21465;52.278;20.962;2023-06-24T00:33:15;2.40;;;2.10;;
35366;SDS011;21465;52.278;20.962;2023-06-24T00:35:47;1.70;;;1.60;;
35366;SDS011;21465;52.278;20.962;2023-06-24T00:38:13;1.70;;;1.60;;
35366;SDS011;21465;52.278;20.962;2023-06-24T00:40:39;1.90;;;1.80;;
35366;SDS011;21465;52.278;20.962;2023-06-24T00:43:05;1.60;;;1.50;;
35366;SDS011;21465;52.278;20.962;2023-06-24T00:45:31;1.73;;;1.63;;
35366;SDS011;21465;52.278;20.962;2023-06-24T00:48:00;1.60;;;1.50;;
35366;SDS011;21465;52.278;20.962;2023-06-24T00:50:26;1.80;;;1.70;;
35366;SDS011;21465;52.278;20.962;2023-06-24T00:52:52;1.88;;;1.77;;
35366;SDS011;21465;52.278;20.962;2023-06-24T00:55:17;2.75;;;1.63;;
35366;SDS011;21465;52.278;20.962;2023-06-24T00:57:47;1.83;;;1.73;;
35366;SDS011;21465;52.278;20.962;2023-06-24T01:00:21;1.90;;;1.80;;
35366;SDS011;21465;52.278;20.962;2023-06-24T01:02:48;2.03;;;1.70;;
35366;SDS011;21465;52.278;20.962;2023-06-24T01:05:14;2.85;;;1.95;;
35366;SDS011;21465;52.278;20.962;2023-06-24T01:07:41;1.75;;;1.65;;
35366;SDS011;21465;52.278;20.962;2023-06-24T01:10:08;2.33;;;2.13;;
35366;SDS011;21465;52.278;20.962;2023-06-24T01:12:38;2.10;;;2.00;;
35366;SDS011;21465;52.278;20.962;2023-06-24T01:15:06;1.95;;;1.75;;
35366;SDS011;21465;52.278;20.962;2023-06-24T01:17:43;2.67;;;1.83;;
35366;SDS011;21465;52.278;20.962;2023-06-24T01:20:29;3.57;;;1.83;;
35366;SDS011;21465;52.278;20.962;2023-06-24T01:23:06;1.88;;;1.77;;
35366;SDS011;21465;52.278;20.962;2023-06-24T01:36:58;2.08;;;1.98;;
35366;SDS011;21465;52.278;20.962;2023-06-24T01:39:30;1.92;;;1.83;;
35366;SDS011;21465;52.278;20.962;2023-06-24T01:42:02;2.20;;;2.10;;
35366;SDS011;21465;52.278;20.962;2023-06-24T01:44:33;2.50;;;2.22;;
35366;SDS011;21465;52.278;20.962;2023-06-24T01:46:59;2.00;;;1.90;;
35366;SDS011;21465;52.278;20.962;2023-06-24T01:49:26;2.40;;;2.20;;
35366;SDS011;21465;52.278;20.962;2023-06-24T01:51:53;3.15;;;2.20;;
35366;SDS011;21465;52.278;20.962;2023-06-24T01:54:21;2.17;;;2.08;;
35366;SDS011;21465;52.278;20.962;2023-06-24T01:56:48;2.15;;;1.90;;
35366;SDS011;21465;52.278;20.962;2023-06-24T01:59:16;2.45;;;2.25;;
35366;SDS011;21465;52.278;20.962;2023-06-24T02:01:42;2.88;;;2.17;;
35366;SDS011;21465;52.278;20.962;2023-06-24T02:04:09;2.20;;;2.10;;
35366;SDS011;21465;52.278;20.962;2023-06-24T02:06:37;2.53;;;2.20;;
35366;SDS011;21465;52.278;20.962;2023-06-24T02:09:04;2.10;;;2.00;;
35366;SDS011;21465;52.278;20.962;2023-06-24T02:11:30;2.35;;;2.25;;
35366;SDS011;21465;52.278;20.962;2023-06-24T02:13:57;2.38;;;2.28;;
35366;SDS011;21465;52.278;20.962;2023-06-24T02:16:24;2.72;;;2.53;;
35366;SDS011;21465;52.278;20.962;2023-06-24T02:18:52;2.13;;;1.92;;
35366;SDS011;21465;52.278;20.962;2023-06-24T02:21:18;2.47;;;2.22;;
35366;SDS011;21465;52.278;20.962;2023-06-24T02:23:45;3.10;;;2.00;;
35366;SDS011;21465;52.278;20.962;2023-06-24T02:26:12;2.17;;;2.00;;
35366;SDS011;21465;52.278;20.962;2023-06-24T02:28:38;2.65;;;2.45;;
35366;SDS011;21465;52.278;20.962;2023-06-24T02:31:04;2.53;;;2.33;;
35366;SDS011;21465;52.278;20.962;2023-06-24T02:33:31;2.80;;;2.45;;
35366;SDS011;21465;52.278;20.962;2023-06-24T02:35:57;2.30;;;2.10;;
35366;SDS011;21465;52.278;20.962;2023-06-24T02:38:23;2.90;;;2.60;;
35366;SDS011;21465;52.278;20.962;2023-06-24T02:40:49;2.42;;;2.22;;
35366;SDS011;21465;52.278;20.962;2023-06-24T02:43:16;2.58;;;2.42;;
35366;SDS011;21465;52.278;20.962;2023-06-24T02:45:42;2.60;;;2.42;;
35366;SDS011;21465;52.278;20.962;2023-06-24T02:48:08;2.58;;;2.38;;
35366;SDS011;21465;52.278;20.962;2023-06-24T02:50:36;2.58;;;2.35;;
35366;SDS011;21465;52.278;20.962;2023-06-24T02:53:03;2.65;;;2.45;;
35366;SDS011;21465;52.278;20.962;2023-06-24T02:55:30;2.65;;;2.45;;
35366;SDS011;21465;52.278;20.962;2023-06-24T02:57:56;2.45;;;2.25;;
35366;SDS011;21465;52.278;20.962;2023-06-24T03:00:23;2.33;;;2.15;;
35366;SDS011;21465;52.278;20.962;2023-06-24T03:02:49;2.47;;;2.28;;
35366;SDS011;21465;52.278;20.962;2023-06-24T03:05:15;2.65;;;2.45;;
35366;SDS011;21465;52.278;20.962;2023-06-24T03:07:42;2.33;;;2.13;;
35366;SDS011;21465;52.278;20.962;2023-06-24T03:10:08;3.28;;;2.70;;
35366;SDS011;21465;52.278;20.962;2023-06-24T03:12:36;2.67;;;2.47;;
35366;SDS011;21465;52.278;20.962;2023-06-24T03:15:01;2.70;;;2.50;;
35366;SDS011;21465;52.278;20.962;2023-06-24T03:17:28;3.58;;;2.70;;
35366;SDS011;21465;52.278;20.962;2023-06-24T03:19:53;2.55;;;2.35;;
35366;SDS011;21465;52.278;20.962;2023-06-24T03:22:20;2.78;;;2.58;;
35366;SDS011;21465;52.278;20.962;2023-06-24T03:24:47;2.90;;;2.70;;
35366;SDS011;21465;52.278;20.962;2023-06-24T03:27:12;2.50;;;2.40;;
35366;SDS011;21465;52.278;20.962;2023-06-24T03:29:38;2.30;;;2.10;;
35366;SDS011;21465;52.278;20.962;2023-06-24T03:32:04;2.78;;;2.53;;
35366;SDS011;21465;52.278;20.962;2023-06-24T03:34:29;2.83;;;2.63;;
35366;SDS011;21465;52.278;20.962;2023-06-24T03:36:55;2.97;;;2.70;;
35366;SDS011;21465;52.278;20.962;2023-06-24T03:39:22;3.47;;;2.50;;
35366;SDS011;21465;52.278;20.962;2023-06-24T03:41:47;2.60;;;2.30;;
35366;SDS011;21465;52.278;20.962;2023-06-24T03:44:13;2.50;;;2.30;;
35366;SDS011;21465;52.278;20.962;2023-06-24T03:46:39;2.30;;;2.20;;
35366;SDS011;21465;52.278;20.962;2023-06-24T03:49:04;2.63;;;2.42;;
35366;SDS011;21465;52.278;20.962;2023-06-24T03:51:30;2.60;;;2.40;;
35366;SDS011;21465;52.278;20.962;2023-06-24T03:53:56;2.65;;;2.45;;
35366;SDS011;21465;52.278;20.962;2023-06-24T03:56:22;2.15;;;2.05;;
35366;SDS011;21465;52.278;20.962;2023-06-24T03:58:48;2.33;;;2.20;;
35366;SDS011;21465;52.278;20.962;2023-06-24T04:01:13;2.33;;;2.15;;
35366;SDS011;21465;52.278;20.962;2023-06-24T04:03:39;3.15;;;2.50;;
35366;SDS011;21465;52.278;20.962;2023-06-24T04:06:05;2.50;;;2.30;;
35366;SDS011;21465;52.278;20.962;2023-06-24T04:08:30;3.63;;;2.45;;
35366;SDS011;21465;52.278;20.962;2023-06-24T04:10:59;2.58;;;2.38;;
35366;SDS011;21465;52.278;20.962;2023-06-24T04:13:32;3.20;;;2.33;;
35366;SDS011;21465;52.278;20.962;2023-06-24T04:15:58;2.83;;;2.50;;
35366;SDS011;21465;52.278;20.962;2023-06-24T04:18:23;2.50;;;2.25;;
35366;SDS011;21465;52.278;20.962;2023-06-24T04:20:49;2.60;;;2.40;;
35366;SDS011;21465;52.278;20.962;2023-06-24T04:23:15;2.50;;;2.30;;
35366;SDS011;21465;52.278;20.962;2023-06-24T04:25:41;2.40;;;2.20;;
35366;SDS011;21465;52.278;20.962;2023-06-24T04:28:07;2.97;;;1.98;;
35366;SDS011;21465;52.278;20.962;2023-06-24T04:30:33;2.55;;;2.35;;
35366;SDS011;21465;52.278;20.962;2023-06-24T04:33:06;3.25;;;2.25;;
35366;SDS011;21465;52.278;20.962;2023-06-24T04:35:31;2.50;;;2.30;;
35366;SDS011;21465;52.278;20.962;2023-06-24T04:37:57;2.38;;;2.22;;
35366;SDS011;21465;52.278;20.962;2023-06-24T04:40:23;2.20;;;2.10;;
35366;SDS011;21465;52.278;20.962;2023-06-24T04:42:49;2.42;;;2.20;;
35366;SDS011;21465;52.278;20.962;2023-06-24T04:45:14;2.40;;;2.20;;
35366;SDS011;21465;52.278;20.962;2023-06-24T04:47:40;2.67;;;2.28;;
35366;SDS011;21465;52.278;20.962;2023-06-24T04:50:06;2.08;;;1.88;;
35366;SDS011;21465;52.278;20.962;2023-06-24T04:52:35;3.00;;;2.10;;
35366;SDS011;21465;52.278;20.962;2023-06-24T04:55:01;2.08;;;1.90;;
35366;SDS011;21465;52.278;20.962;2023-06-24T04:57:28;2.65;;;2.45;;
35366;SDS011;21465;52.278;20.962;2023-06-24T04:59:55;2.60;;;2.40;;
35366;SDS011;21465;52.278;20.962;2023-06-24T05:02:21;2.33;;;2.13;;
35366;SDS011;21465;52.278;20.962;2023-06-24T05:04:47;2.85;;;2.60;;
35366;SDS011;21465;52.278;20.962;2023-06-24T05:07:13;2.80;;;2.60;;
35366;SDS011;21465;52.278;20.962;2023-06-24T05:09:39;3.30;;;2.40;;
35366;SDS011;21465;52.278;20.962;2023-06-24T05:12:05;2.28;;;2.13;;
35366;SDS011;21465;52.278;20.962;2023-06-24T05:14:33;2.00;;;1.90;;
35366;SDS011;21465;52.278;20.962;2023-06-24T05:16:59;1.88;;;1.77;;
35366;SDS011;21465;52.278;20.962;2023-06-24T05:19:25;3.00;;;2.28;;
35366;SDS011;21465;52.278;20.962;2023-06-24T05:21:51;3.40;;;2.30;;
35366;SDS011;21465;52.278;20.962;2023-06-24T05:24:17;2.45;;;2.20;;
35366;SDS011;21465;52.278;20.962;2023-06-24T05:26:42;2.50;;;2.15;;
35366;SDS011;21465;52.278;20.962;2023-06-24T05:29:10;2.10;;;2.00;;
35366;SDS011;21465;52.278;20.962;2023-06-24T05:31:37;1.80;;;1.70;;
35366;SDS011;21465;52.278;20.962;2023-06-24T05:34:03;2.38;;;2.10;;
35366;SDS011;21465;52.278;20.962;2023-06-24T05:36:28;1.80;;;1.70;;
35366;SDS011;21465;52.278;20.962;2023-06-24T05:38:54;2.30;;;2.10;;
35366;SDS011;21465;52.278;20.962;2023-06-24T05:41:20;3.05;;;1.90;;
35366;SDS011;21465;52.278;20.962;2023-06-24T05:43:46;2.85;;;2.00;;
35366;SDS011;21465;52.278;20.962;2023-06-24T05:46:11;2.30;;;2.20;;
35366;SDS011;21465;52.278;20.962;2023-06-24T05:48:37;1.65;;;1.55;;
35366;SDS011;21465;52.278;20.962;2023-06-24T05:51:03;1.88;;;1.75;;
35366;SDS011;21465;52.278;20.962;2023-06-24T05:53:29;2.45;;;2.25;;
35366;SDS011;21465;52.278;20.962;2023-06-24T05:55:54;1.90;;;1.80;;
35366;SDS011;21465;52.278;20.962;2023-06-24T05:58:20;2.03;;;1.77;;
35366;SDS011;21465;52.278;20.962;2023-06-24T06:00:46;2.53;;;2.10;;
35366;SDS011;21465;52.278;20.962;2023-06-24T06:03:11;2.70;;;1.90;;
35366;SDS011;21465;52.278;20.962;2023-06-24T06:05:37;2.03;;;1.88;;
35366;SDS011;21465;52.278;20.962;2023-06-24T06:08:03;2.60;;;2.15;;
35366;SDS011;21465;52.278;20.962;2023-06-24T06:10:29;1.90;;;1.77;;
35366;SDS011;21465;52.278;20.962;2023-06-24T06:12:55;2.72;;;2.53;;
35366;SDS011;21465;52.278;20.962;2023-06-24T06:15:20;2.25;;;2.10;;
35366;SDS011;21465;52.278;20.962;2023-06-24T06:17:46;2.03;;;1.92;;
35366;SDS011;21465;52.278;20.962;2023-06-24T06:20:12;2.33;;;2.17;;
35366;SDS011;21465;52.278;20.962;2023-06-24T06:22:38;2.10;;;2.00;;
35366;SDS011;21465;52.278;20.962;2023-06-24T06:25:06;2.80;;;1.88;;
35366;SDS011;21465;52.278;20.962;2023-06-24T06:27:33;2.42;;;2.03;;
35366;SDS011;21465;52.278;20.962;2023-06-24T06:29:59;2.58;;;2.38;;
35366;SDS011;21465;52.278;20.962;2023-06-24T06:32:24;2.35;;;2.08;;
35366;SDS011;21465;52.278;20.962;2023-06-24T06:34:50;2.35;;;2.15;;
35366;SDS011;21465;52.278;20.962;2023-06-24T06:37:16;2.47;;;2.08;;
35366;SDS011;21465;52.278;20.962;2023-06-24T06:39:41;2.17;;;1.98;;
35366;SDS011;21465;52.278;20.962;2023-06-24T06:42:07;2.30;;;2.10;;
35366;SDS011;21465;52.278;20.962;2023-06-24T06:44:33;2.45;;;2.25;;
35366;SDS011;21465;52.278;20.962;2023-06-24T06:46:59;2.13;;;2.00;;
35366;SDS011;21465;52.278;20.962;2023-06-24T06:49:24;2.30;;;1.98;;
35366;SDS011;21465;52.278;20.962;2023-06-24T06:51:53;2.00;;;1.90;;
35366;SDS011;21465;52.278;20.962;2023-06-24T06:54:19;2.27;;;1.97;;
35366;SDS011;21465;52.278;20.962;2023-06-24T06:56:45;2.00;;;1.90;;
35366;SDS011;21465;52.278;20.962;2023-06-24T06:59:10;1.90;;;1.80;;
35366;SDS011;21465;52.278;20.962;2023-06-24T07:01:36;2.05;;;1.95;;
35366;SDS011;21465;52.278;20.962;2023-06-24T07:04:02;1.73;;;1.63;;
35366;SDS011;21465;52.278;20.962;2023-06-24T07:06:27;2.00;;;1.90;;
35366;SDS011;21465;52.278;20.962;2023-06-24T07:08:53;1.90;;;1.80;;
35366;SDS011;21465;52.278;20.962;2023-06-24T07:11:19;1.90;;;1.80;;
35366;SDS011;21465;52.278;20.962;2023-06-24T07:13:44;2.08;;;1.98;;
35366;SDS011;21465;52.278;20.962;2023-06-24T07:16:11;1.80;;;1.70;;
35366;SDS011;21465;52.278;20.962;2023-06-24T07:18:37;2.40;;;1.85;;
35366;SDS011;21465;52.278;20.962;2023-06-24T07:21:02;1.90;;;1.80;;
35366;SDS011;21465;52.278;20.962;2023-06-24T07:23:28;1.83;;;1.73;;
35366;SDS011;21465;52.278;20.962;2023-06-24T07:25:54;1.95;;;1.73;;
35366;SDS011;21465;52.278;20.962;2023-06-24T07:28:20;3.03;;;2.08;;
35366;SDS011;21465;52.278;20.962;2023-06-24T07:30:46;2.20;;;2.00;;
35366;SDS011;21465;52.278;20.962;2023-06-24T07:33:11;1.77;;;1.67;;
35366;SDS011;21465;52.278;20.962;2023-06-24T07:35:37;1.80;;;1.70;;
35366;SDS011;21465;52.278;20.962;2023-06-24T07:38:03;1.73;;;1.63;;
35366;SDS011;21465;52.278;20.962;2023-06-24T07:40:29;1.60;;;1.45;;
35366;SDS011;21465;52.278;20.962;2023-06-24T07:42:54;1.67;;;1.50;;
35366;SDS011;21465;52.278;20.962;2023-06-24T07:45:20;1.65;;;1.40;;
35366;SDS011;21465;52.278;20.962;2023-06-24T07:47:46;1.70;;;1.60;;
35366;SDS011;21465;52.278;20.962;2023-06-24T07:50:12;1.50;;;1.40;;
35366;SDS011;21465;52.278;20.962;2023-06-24T07:52:38;1.60;;;1.50;;
35366;SDS011;21465;52.278;20.962;2023-06-24T07:55:04;1.42;;;1.33;;
35366;SDS011;21465;52.278;20.962;2023-06-24T07:57:30;1.63;;;1.52;;
35366;SDS011;21465;52.278;20.962;2023-06-24T07:59:56;1.50;;;1.40;;
35366;SDS011;21465;52.278;20.962;2023-06-24T08:02:21;1.98;;;1.50;;
35366;SDS011;21465;52.278;20.962;2023-06-24T08:04:49;1.90;;;1.67;;
35366;SDS011;21465;52.278;20.962;2023-06-24T08:07:17;1.65;;;1.55;;
35366;SDS011;21465;52.278;20.962;2023-06-24T08:09:43;2.80;;;1.40;;
35366;SDS011;21465;52.278;20.962;2023-06-24T08:12:09;1.50;;;1.40;;
35366;SDS011;21465;52.278;20.962;2023-06-24T08:14:35;1.50;;;1.40;;
35366;SDS011;21465;52.278;20.962;2023-06-24T08:17:01;1.95;;;1.63;;
35366;SDS011;21465;52.278;20.962;2023-06-24T08:19:27;2.35;;;1.38;;
35366;SDS011;21465;52.278;20.962;2023-06-24T08:21:52;1.90;;;1.65;;
35366;SDS011;21465;52.278;20.962;2023-06-24T08:24:19;2.22;;;1.58;;
35366;SDS011;21465;52.278;20.962;2023-06-24T08:26:45;1.65;;;1.42;;
35366;SDS011;21465;52.278;20.962;2023-06-24T08:29:10;2.47;;;2.38;;
35366;SDS011;21465;52.278;20.962;2023-06-24T08:31:36;1.90;;;1.50;;
35366;SDS011;21465;52.278;20.962;2023-06-24T08:34:02;1.50;;;1.40;;
35366;SDS011;21465;52.278;20.962;2023-06-24T08:36:28;1.60;;;1.50;;
35366;SDS011;21465;52.278;20.962;2023-06-24T08:38:54;1.98;;;1.77;;
35366;SDS011;21465;52.278;20.962;2023-06-24T08:41:20;1.75;;;1.60;;
35366;SDS011;21465;52.278;20.962;2023-06-24T08:43:46;1.30;;;1.30;;
35366;SDS011;21465;52.278;20.962;2023-06-24T08:46:12;3.42;;;1.85;;
35366;SDS011;21465;52.278;20.962;2023-06-24T08:48:39;1.73;;;1.63;;
35366;SDS011;21465;52.278;20.962;2023-06-24T08:51:08;1.50;;;1.38;;
35366;SDS011;21465;52.278;20.962;2023-06-24T08:56:03;1.50;;;1.40;;
35366;SDS011;21465;52.278;20.962;2023-06-24T08:58:29;1.60;;;1.50;;
35366;SDS011;21465;52.278;20.962;2023-06-24T09:00:55;1.60;;;1.50;;
35366;SDS011;21465;52.278;20.962;2023-06-24T09:03:21;1.73;;;1.60;;
35366;SDS011;21465;52.278;20.962;2023-06-24T09:05:48;2.47;;;1.70;;
35366;SDS011;21465;52.278;20.962;2023-06-24T09:08:14;1.90;;;1.80;;
35366;SDS011;21465;52.278;20.962;2023-06-24T09:10:41;3.30;;;1.65;;
35366;SDS011;21465;52.278;20.962;2023-06-24T09:13:07;2.72;;;1.85;;
35366;SDS011;21465;52.278;20.962;2023-06-24T09:15:36;1.80;;;1.70;;
35366;SDS011;21465;52.278;20.962;2023-06-24T09:18:03;1.90;;;1.80;;
35366;SDS011;21465;52.278;20.962;2023-06-24T09:20:30;2.22;;;1.98;;
35366;SDS011;21465;52.278;20.962;2023-06-24T09:22:58;1.83;;;1.67;;
35366;SDS011;21465;52.278;20.962;2023-06-24T09:25:27;2.53;;;1.88;;
35366;SDS011;21465;52.278;20.962;2023-06-24T09:27:53;1.92;;;1.83;;
35366;SDS011;21465;52.278;20.962;2023-06-24T09:30:24;3.22;;;1.90;;
35366;SDS011;21465;52.278;20.962;2023-06-24T09:32:50;2.13;;;1.80;;
35366;SDS011;21465;52.278;20.962;2023-06-24T09:35:21;1.73;;;1.63;;
35366;SDS011;21465;52.278;20.962;2023-06-24T09:37:54;2.35;;;1.50;;
35366;SDS011;21465;52.278;20.962;2023-06-24T09:40:21;1.85;;;1.75;;
35366;SDS011;21465;52.278;20.962;2023-06-24T09:42:51;1.73;;;1.63;;
35366;SDS011;21465;52.278;20.962;2023-06-24T09:45:21;1.90;;;1.80;;
35366;SDS011;21465;52.278;20.962;2023-06-24T09:47:56;2.28;;;1.52;;
35366;SDS011;21465;52.278;20.962;2023-06-24T09:50:26;1.52;;;1.42;;
35366;SDS011;21465;52.278;20.962;2023-06-24T09:52:52;1.42;;;1.33;;
35366;SDS011;21465;52.278;20.962;2023-06-24T09:55:18;1.70;;;1.60;;
35366;SDS011;21465;52.278;20.962;2023-06-24T09:57:45;1.60;;;1.50;;
35366;SDS011;21465;52.278;20.962;2023-06-24T10:00:14;2.05;;;1.67;;
35366;SDS011;21465;52.278;20.962;2023-06-24T10:02:45;2.30;;;1.60;;
35366;SDS011;21465;52.278;20.962;2023-06-24T10:05:12;2.17;;;1.80;;
35366;SDS011;21465;52.278;20.962;2023-06-24T10:07:39;2.15;;;1.85;;
35366;SDS011;21465;52.278;20.962;2023-06-24T10:10:06;2.35;;;2.08;;
35366;SDS011;21465;52.278;20.962;2023-06-24T10:12:33;2.67;;;1.77;;
35366;SDS011;21465;52.278;20.962;2023-06-24T10:14:59;1.77;;;1.55;;
35366;SDS011;21465;52.278;20.962;2023-06-24T10:17:26;3.90;;;2.28;;
35366;SDS011;21465;52.278;20.962;2023-06-24T10:19:52;3.13;;;1.90;;
35366;SDS011;21465;52.278;20.962;2023-06-24T10:22:21;1.80;;;1.70;;
35366;SDS011;21465;52.278;20.962;2023-06-24T10:24:49;1.98;;;1.73;;
35366;SDS011;21465;52.278;20.962;2023-06-24T10:27:20;2.15;;;1.90;;
35366;SDS011;21465;52.278;20.962;2023-06-24T10:29:50;1.73;;;1.63;;
35366;SDS011;21465;52.278;20.962;2023-06-24T10:32:19;2.80;;;1.90;;
35366;SDS011;21465;52.278;20.962;2023-06-24T10:34:47;1.90;;;1.80;;
35366;SDS011;21465;52.278;20.962;2023-06-24T10:37:20;1.90;;;1.80;;
35366;SDS011;21465;52.278;20.962;2023-06-24T10:39:53;1.60;;;1.50;;
35366;SDS011;21465;52.278;20.962;2023-06-24T10:42:39;1.98;;;1.88;;
35366;SDS011;21465;52.278;20.962;2023-06-24T10:47:53;2.00;;;1.73;;
35366;SDS011;21465;52.278;20.962;2023-06-24T10:50:19;2.03;;;1.83;;
35366;SDS011;21465;52.278;20.962;2023-06-24T10:52:46;1.85;;;1.58;;
35366;SDS011;21465;52.278;20.962;2023-06-24T10:55:17;3.15;;;1.52;;
35366;SDS011;21465;52.278;20.962;2023-06-24T10:57:43;3.33;;;1.65;;
35366;SDS011;21465;52.278;20.962;2023-06-24T11:00:10;1.50;;;1.40;;
35366;SDS011;21465;52.278;20.962;2023-06-24T11:02:38;1.70;;;1.60;;
35366;SDS011;21465;52.278;20.962;2023-06-24T11:05:04;2.08;;;1.88;;
35366;SDS011;21465;52.278;20.962;2023-06-24T11:07:31;1.80;;;1.58;;
35366;SDS011;21465;52.278;20.962;2023-06-24T11:10:03;1.73;;;1.63;;
35366;SDS011;21465;52.278;20.962;2023-06-24T11:12:34;3.47;;;2.05;;
35366;SDS011;21465;52.278;20.962;2023-06-24T11:15:01;1.80;;;1.70;;
35366;SDS011;21465;52.278;20.962;2023-06-24T11:17:28;2.20;;;1.58;;
35366;SDS011;21465;52.278;20.962;2023-06-24T11:19:54;3.38;;;2.00;;
35366;SDS011;21465;52.278;20.962;2023-06-24T11:22:35;2.30;;;1.80;;
35366;SDS011;21465;52.278;20.962;2023-06-24T11:25:01;1.73;;;1.63;;
35366;SDS011;21465;52.278;20.962;2023-06-24T11:27:27;1.67;;;1.58;;
35366;SDS011;21465;52.278;20.962;2023-06-24T11:29:54;2.60;;;1.80;;
35366;SDS011;21465;52.278;20.962;2023-06-24T11:32:22;1.80;;;1.70;;
35366;SDS011;21465;52.278;20.962;2023-06-24T11:34:48;2.78;;;1.90;;
35366;SDS011;21465;52.278;20.962;2023-06-24T11:37:14;2.00;;;1.90;;
35366;SDS011;21465;52.278;20.962;2023-06-24T11:39:42;2.20;;;1.95;;
35366;SDS011;21465;52.278;20.962;2023-06-24T11:42:08;3.03;;;2.40;;
35366;SDS011;21465;52.278;20.962;2023-06-24T11:44:35;2.45;;;1.92;;
35366;SDS011;21465;52.278;20.962;2023-06-24T11:47:08;2.80;;;1.55;;
35366;SDS011;21465;52.278;20.962;2023-06-24T11:49:50;1.77;;;1.67;;
35366;SDS011;21465;52.278;20.962;2023-06-24T11:52:17;2.40;;;1.85;;
35366;SDS011;21465;52.278;20.962;2023-06-24T11:54:43;3.88;;;2.00;;
35366;SDS011;21465;52.278;20.962;2023-06-24T11:57:09;1.70;;;1.60;;
35366;SDS011;21465;52.278;20.962;2023-06-24T11:59:35;2.85;;;2.00;;
35366;SDS011;21465;52.278;20.962;2023-06-24T12:02:00;2.17;;;1.58;;
35366;SDS011;21465;52.278;20.962;2023-06-24T12:04:29;2.40;;;1.80;;
35366;SDS011;21465;52.278;20.962;2023-06-24T12:06:56;1.75;;;1.65;;
35366;SDS011;21465;52.278;20.962;2023-06-24T12:09:22;2.95;;;1.88;;
35366;SDS011;21465;52.278;20.962;2023-06-24T12:11:48;1.80;;;1.70;;
35366;SDS011;21465;52.278;20.962;2023-06-24T12:14:14;1.77;;;1.67;;
35366;SDS011;21465;52.278;20.962;2023-06-24T12:16:39;3.25;;;1.92;;
35366;SDS011;21465;52.278;20.962;2023-06-24T12:19:06;1.77;;;1.67;;
35366;SDS011;21465;52.278;20.962;2023-06-24T12:21:32;1.90;;;1.80;;
35366;SDS011;21465;52.278;20.962;2023-06-24T12:23:58;2.50;;;1.65;;
35366;SDS011;21465;52.278;20.962;2023-06-24T12:26:23;1.85;;;1.75;;
35366;SDS011;21465;52.278;20.962;2023-06-24T12:28:49;2.17;;;1.98;;
35366;SDS011;21465;52.278;20.962;2023-06-24T12:31:15;2.30;;;2.10;;
35366;SDS011;21465;52.278;20.962;2023-06-24T12:33:41;2.08;;;1.88;;
35366;SDS011;21465;52.278;20.962;2023-06-24T12:36:06;1.92;;;1.70;;
35366;SDS011;21465;52.278;20.962;2023-06-24T12:38:32;2.83;;;1.83;;
35366;SDS011;21465;52.278;20.962;2023-06-24T12:40:58;1.80;;;1.70;;
35366;SDS011;21465;52.278;20.962;2023-06-24T12:43:24;2.15;;;1.70;;
35366;SDS011;21465;52.278;20.962;2023-06-24T12:45:49;2.08;;;1.83;;
35366;SDS011;21465;52.278;20.962;2023-06-24T12:48:16;1.80;;;1.70;;
35366;SDS011;21465;52.278;20.962;2023-06-24T12:50:42;2.70;;;2.08;;
35366;SDS011;21465;52.278;20.962;2023-06-24T12:53:08;2.63;;;1.90;;
35366;SDS011;21465;52.278;20.962;2023-06-24T12:55:36;2.22;;;1.88;;
35366;SDS011;21465;52.278;20.962;2023-06-24T12:58:02;2.47;;;2.28;;
35366;SDS011;21465;52.278;20.962;2023-06-24T13:00:27;2.30;;;2.10;;
35366;SDS011;21465;52.278;20.962;2023-06-24T13:02:53;2.38;;;2.08;;
35366;SDS011;21465;52.278;20.962;2023-06-24T13:05:19;1.83;;;1.73;;
35366;SDS011;21465;52.278;20.962;2023-06-24T13:07:45;1.80;;;1.70;;
35366;SDS011;21465;52.278;20.962;2023-06-24T13:10:11;3.78;;;2.15;;
35366;SDS011;21465;52.278;20.962;2023-06-24T13:12:37;2.28;;;1.70;;
35366;SDS011;21465;52.278;20.962;2023-06-24T13:15:03;3.30;;;1.70;;
35366;SDS011;21465;52.278;20.962;2023-06-24T13:17:30;2.17;;;1.80;;
35366;SDS011;21465;52.278;20.962;2023-06-24T13:19:56;2.00;;;1.80;;
35366;SDS011;21465;52.278;20.962;2023-06-24T13:22:23;1.75;;;1.60;;
35366;SDS011;21465;52.278;20.962;2023-06-24T13:24:49;2.25;;;1.55;;
35366;SDS011;21465;52.278;20.962;2023-06-24T13:27:15;1.50;;;1.40;;
35366;SDS011;21465;52.278;20.962;2023-06-24T13:29:42;2.55;;;1.50;;
35366;SDS011;21465;52.278;20.962;2023-06-24T13:32:08;1.38;;;1.27;;
35366;SDS011;21465;52.278;20.962;2023-06-24T13:34:34;1.50;;;1.40;;
35366;SDS011;21465;52.278;20.962;2023-06-24T13:37:00;1.65;;;1.55;;
35366;SDS011;21465;52.278;20.962;2023-06-24T13:39:26;1.42;;;1.30;;
35366;SDS011;21465;52.278;20.962;2023-06-24T13:41:53;1.33;;;1.25;;
35366;SDS011;21465;52.278;20.962;2023-06-24T13:44:18;1.65;;;1.52;;
35366;SDS011;21465;52.278;20.962;2023-06-24T13:46:44;1.50;;;1.40;;
35366;SDS011;21465;52.278;20.962;2023-06-24T13:49:10;1.30;;;1.20;;
35366;SDS011;21465;52.278;20.962;2023-06-24T13:51:36;1.73;;;1.33;;
35366;SDS011;21465;52.278;20.962;2023-06-24T13:54:02;2.03;;;1.35;;
35366;SDS011;21465;52.278;20.962;2023-06-24T13:56:28;1.50;;;1.40;;
35366;SDS011;21465;52.278;20.962;2023-06-24T13:58:55;1.55;;;1.45;;
35366;SDS011;21465;52.278;20.962;2023-06-24T14:01:21;2.13;;;1.40;;
35366;SDS011;21465;52.278;20.962;2023-06-24T14:03:47;1.60;;;1.50;;
35366;SDS011;21465;52.278;20.962;2023-06-24T14:06:14;1.52;;;1.42;;
35366;SDS011;21465;52.278;20.962;2023-06-24T14:08:41;1.85;;;1.38;;
35366;SDS011;21465;52.278;20.962;2023-06-24T14:11:08;2.10;;;1.45;;
35366;SDS011;21465;52.278;20.962;2023-06-24T14:13:33;1.60;;;1.50;;
35366;SDS011;21465;52.278;20.962;2023-06-24T14:16:01;1.90;;;1.80;;
35366;SDS011;21465;52.278;20.962;2023-06-24T14:18:27;1.50;;;1.40;;
35366;SDS011;21465;52.278;20.962;2023-06-24T14:20:57;2.80;;;1.80;;
35366;SDS011;21465;52.278;20.962;2023-06-24T14:23:25;2.05;;;1.85;;
35366;SDS011;21465;52.278;20.962;2023-06-24T14:25:52;1.63;;;1.52;;
35366;SDS011;21465;52.278;20.962;2023-06-24T14:28:18;2.42;;;1.73;;
35366;SDS011;21465;52.278;20.962;2023-06-24T14:30:43;1.63;;;1.52;;
35366;SDS011;21465;52.278;20.962;2023-06-24T14:33:11;2.63;;;1.80;;
35366;SDS011;21465;52.278;20.962;2023-06-24T14:35:40;1.48;;;1.30;;
35366;SDS011;21465;52.278;20.962;2023-06-24T14:38:06;1.80;;;1.70;;
35366;SDS011;21465;52.278;20.962;2023-06-24T14:40:32;1.63;;;1.52;;
35366;SDS011;21465;52.278;20.962;2023-06-24T14:42:58;2.15;;;1.67;;
35366;SDS011;21465;52.278;20.962;2023-06-24T14:45:24;2.03;;;1.80;;
35366;SDS011;21465;52.278;20.962;2023-06-24T14:47:49;1.80;;;1.70;;